Time;durP1;ratioP1;P1;durP2;ratioP2;P2;SDS_P1;SDS_P2;PMS_P1;PMS_P2;Temp;Humidity;BMP_temperature;BMP_pressure;BME280_temperature;BME280_humidity;BME280_pressure;Samples;Min_cycle;Max_cycle;Signal;HPM_P1;HPM_P2
2022/12/23 00:00:58;;;;;;;58.28;26.02;;;;;;;9.12;100.00;67781.97;4980528;28;20030;-83
2022/12/23 00:03:24;;;;;;;60.30;28.33;;;;;;;9.11;100.00;67780.81;4989809;28;20073;-82
2022/12/23 00:05:50;;;;;;;50.92;24.20;;;;;;;9.12;100.00;67781.38;5001217;28;20041;-83
2022/12/23 00:08:15;;;;;;;54.70;26.75;;;;;;;9.12;100.00;67778.72;5009569;28;20049;-83
2022/12/23 00:10:41;;;;;;;54.33;23.55;;;;;;;9.11;100.00;67775.50;4993873;28;20039;-83
2022/12/23 00:16:02;;;;;;;49.88;24.52;;;;;;;9.10;100.00;67779.69;4980622;28;20530;-83
2022/12/23 00:18:28;;;;;;;57.05;30.10;;;;;;;9.09;100.00;67772.66;4984329;28;20050;-83
2022/12/23 00:21:00;;;;;;;52.72;25.13;;;;;;;9.08;100.00;67777.41;4999051;28;20049;-83
2022/12/23 00:23:25;;;;;;;49.58;26.40;;;;;;;9.08;100.00;67774.19;5006750;28;20042;-83
2022/12/23 00:25:50;;;;;;;49.42;26.00;;;;;;;9.07;100.00;67776.28;4993549;28;20201;-83
2022/12/23 00:28:19;;;;;;;52.00;23.88;;;;;;;9.06;100.00;67772.50;5006386;28;20046;-83
2022/12/23 00:30:47;;;;;;;58.25;31.27;;;;;;;9.07;100.00;67776.28;5008229;28;20073;-84
2022/12/23 00:33:19;;;;;;;57.35;26.65;;;;;;;9.07;100.00;67776.28;5019296;28;20064;-83
2022/12/23 00:35:45;;;;;;;57.50;24.55;;;;;;;9.06;100.00;67774.56;5008120;28;20134;-84
2022/12/23 00:38:11;;;;;;;63.85;33.05;;;;;;;9.07;100.00;67773.63;5003158;28;20058;-83
2022/12/23 00:43:20;;;;;;;51.42;24.15;;;;;;;9.05;100.00;67774.00;5000741;28;20100;-83
2022/12/23 00:45:46;;;;;;;51.08;24.88;;;;;;;9.06;100.00;67775.13;5006989;28;20026;-83
2022/12/23 00:50:56;;;;;;;57.22;25.40;;;;;;;9.06;100.00;67775.13;4985218;28;20057;-82
2022/12/23 00:53:22;;;;;;;53.80;26.20;;;;;;;9.05;100.00;67774.00;5002964;28;20509;-83
2022/12/23 00:55:47;;;;;;;51.15;25.77;;;;;;;;;;4991988;28;20050;-83
2022/12/23 00:58:16;;;;;;;54.47;26.50;;;;;;;;;;5004876;28;20042;-82
2022/12/23 01:06:11;;;;;;;49.03;22.58;;;;;;;;;;4990298;28;20045;-83
2022/12/23 01:08:36;;;;;;;43.03;23.35;;;;;;;9.09;100.00;67773.25;4992127;28;20041;-83
2022/12/23 01:11:04;;;;;;;58.47;26.98;;;;;;;9.08;100.00;67772.09;4992760;28;20041;-83
2022/12/23 01:13:30;;;;;;;49.53;27.48;;;;;;;9.08;100.00;67769.44;4976285;28;20074;-83
2022/12/23 01:16:08;;;;;;;47.92;25.88;;;;;;;9.09;100.00;67775.91;4978820;28;20069;-83
2022/12/23 01:18:34;;;;;;;42.45;21.52;;;;;;;9.10;100.00;67779.69;4973340;28;20042;-83
2022/12/23 01:21:07;;;;;;;51.70;27.20;;;;;;;9.09;100.00;67778.56;4989669;28;20042;-84
2022/12/23 01:23:33;;;;;;;47.15;21.02;;;;;;;9.09;100.00;67777.97;4997241;28;20587;-83
2022/12/23 01:26:00;;;;;;;47.78;23.67;;;;;;;9.11;100.00;67778.16;5008241;28;20046;-82
2022/12/23 01:28:28;;;;;;;57.00;30.17;;;;;;;9.12;100.00;67779.31;5014995;28;20556;-83
2022/12/23 01:30:53;;;;;;;50.70;28.90;;;;;;;;;;4996072;28;20042;-83
2022/12/23 01:33:19;;;;;;;48.78;28.55;;;;;;;9.13;100.00;67783.09;5002934;28;20100;-82
2022/12/23 01:35:45;;;;;;;54.78;29.52;;;;;;;9.12;100.00;67778.72;4990844;28;20517;-84
2022/12/23 01:38:10;;;;;;;47.38;27.15;;;;;;;9.10;100.00;67779.69;4989615;28;20046;-83
2022/12/23 01:40:38;;;;;;;51.05;27.60;;;;;;;9.13;100.00;67779.88;4989004;28;20134;-83
2022/12/23 01:43:03;;;;;;;47.20;22.48;;;;;;;9.12;100.00;67779.31;4987655;28;20042;-82
2022/12/23 01:45:31;;;;;;;52.08;25.60;;;;;;;9.14;100.00;67781.00;4989478;28;20039;-83
2022/12/23 01:48:10;;;;;;;47.50;22.88;;;;;;;9.14;100.00;67783.66;5004990;28;20034;-83
2022/12/23 01:50:41;;;;;;;;;;;;;;;9.15;100.00;67784.78;5007230;28;20042;-84
2022/12/23 01:53:16;;;;;;;44.42;22.40;;;;;;;9.09;100.00;67775.91;4999333;28;19913;-84
2022/12/23 01:55:50;;;;;;;43.40;24.25;;;;;;;9.10;100.00;67779.69;5004629;28;20043;-83
2022/12/23 01:58:30;;;;;;;47.05;27.58;;;;;;;9.11;100.00;67780.25;5002390;28;20046;-84
2022/12/23 02:03:41;;;;;;;56.42;29.83;;;;;;;9.10;100.00;67779.69;4994111;28;20505;-83
2022/12/23 02:09:36;;;;;;;50.40;25.20;;;;;;;9.14;100.00;67778.91;4977973;28;20072;-83
2022/12/23 02:12:31;;;;;;;56.05;24.08;;;;;;;9.13;100.00;67783.09;4992083;28;20048;-83
2022/12/23 02:18:01;;;;;;;67.40;34.40;;;;;;;9.12;100.00;67779.31;5003552;28;20130;-83
2022/12/23 02:20:29;;;;;;;62.03;29.10;;;;;;;;;;5002780;28;20537;-83
2022/12/23 02:23:07;;;;;;;67.03;27.70;;;;;;;9.13;100.00;67780.44;4979520;28;20633;-83
2022/12/23 02:25:56;;;;;;;65.50;26.77;;;;;;;9.12;100.00;67779.31;4988941;28;20062;-83
2022/12/23 02:28:21;;;;;;;;;;;;;;;9.13;100.00;67782.53;4990723;28;20047;-83
2022/12/23 02:31:15;;;;;;;74.50;36.13;;;;;;;9.06;100.00;67774.56;5000088;28;20293;-83
2022/12/23 02:33:59;;;;;;;61.25;25.70;;;;;;;9.07;100.00;67775.72;4995657;28;20274;-83
2022/12/23 02:36:34;;;;;;;72.85;33.78;;;;;;;;;;5012220;28;20104;-83
2022/12/23 02:39:21;;;;;;;70.25;30.05;;;;;;;9.10;100.00;67776.47;4988185;28;20046;-83
2022/12/23 02:42:18;;;;;;;66.95;28.20;;;;;;;9.10;100.00;67779.69;5008452;28;20524;-84
2022/12/23 02:45:06;;;;;;;72.57;30.70;;;;;;;9.08;100.00;67777.41;4972449;28;20697;-83
2022/12/23 02:47:36;;;;;;;75.75;35.85;;;;;;;9.08;100.00;67774.75;4984719;28;20057;-83
2022/12/23 02:50:10;;;;;;;68.50;30.70;;;;;;;9.08;100.00;67774.75;4969167;28;20078;-83
2022/12/23 02:52:38;;;;;;;71.05;30.08;;;;;;;9.09;100.00;67778.56;4961343;28;20122;-84
2022/12/23 02:55:15;;;;;;;67.65;28.40;;;;;;;9.08;100.00;67777.41;4967150;28;20051;-83
2022/12/23 02:57:45;;;;;;;64.97;31.83;;;;;;;9.09;100.00;67775.91;4962579;28;20047;-83
2022/12/23 03:00:11;;;;;;;66.68;31.20;;;;;;;9.08;100.00;67776.84;4966147;28;20054;-83
2022/12/23 03:02:39;;;;;;;62.60;25.85;;;;;;;9.08;100.00;67771.53;4968651;28;20031;-83
2022/12/23 03:05:05;;;;;;;67.03;27.95;;;;;;;9.08;100.00;67776.84;4968391;28;20041;-84
2022/12/23 03:07:37;;;;;;;67.13;30.10;;;;;;;9.07;100.00;67773.06;4976588;28;20134;-84
2022/12/23 03:10:17;;;;;;;59.80;24.92;;;;;;;9.06;100.00;67775.13;4968318;28;20617;-83
2022/12/23 03:13:18;;;;;;;72.82;31.95;;;;;;;9.07;100.00;67775.72;4963409;28;20431;-83
2022/12/23 03:16:01;;;;;;;72.15;30.05;;;;;;;;;;4965024;28;20073;-84
2022/12/23 03:18:52;;;;;;;60.55;27.67;;;;;;;9.04;100.00;67767.59;4983086;28;20046;-84
2022/12/23 03:21:29;;;;;;;65.20;26.52;;;;;;;9.03;100.00;67769.09;4988993;28;20473;-85
2022/12/23 03:24:13;;;;;;;57.15;23.70;;;;;;;;;;4995212;28;20402;-84
2022/12/23 03:26:48;;;;;;;70.78;30.48;;;;;;;9.02;100.00;67767.97;4997363;28;20105;-84
2022/12/23 03:29:16;;;;;;;61.63;26.67;;;;;;;9.03;100.00;67771.75;4998225;28;20042;-84
2022/12/23 03:31:43;;;;;;;58.30;24.15;;;;;;;9.02;100.00;67771.19;5000990;28;20042;-83
2022/12/23 03:34:14;;;;;;;60.20;25.42;;;;;;;9.03;100.00;67771.75;5000907;28;20053;-84
2022/12/23 03:36:50;;;;;;;53.72;23.58;;;;;;;9.02;100.00;67765.88;4996118;28;20041;-84
2022/12/23 03:39:19;;;;;;;56.70;22.27;;;;;;;9.01;100.00;67770.06;4992760;28;20035;-84
2022/12/23 03:41:55;;;;;;;61.65;25.75;;;;;;;9.00;100.00;67768.91;4992754;28;20184;-84
2022/12/23 03:44:29;;;;;;;65.80;27.73;;;;;;;8.98;100.00;67766.09;5005781;28;20047;-84
2022/12/23 03:47:04;;;;;;;57.03;25.95;;;;;;;8.97;100.00;67762.28;4997313;28;20062;-83
2022/12/23 03:49:37;;;;;;;67.55;25.95;;;;;;;8.96;100.00;67764.38;4999348;28;20042;-84
2022/12/23 03:52:09;;;;;;;60.90;26.02;;;;;;;8.96;100.00;67763.81;4985136;28;20046;-83
2022/12/23 03:54:41;;;;;;;65.18;29.33;;;;;;;8.95;100.00;67760.03;4995937;28;20048;-83
2022/12/23 03:57:09;;;;;;;56.53;26.05;;;;;;;8.93;100.00;67761.00;4996756;28;20042;-83
2022/12/23 03:59:39;;;;;;;60.25;24.92;;;;;;;;;;4994143;28;20066;-83
2022/12/23 04:02:25;;;;;;;67.43;30.38;;;;;;;8.92;100.00;67759.28;4994467;28;20101;-83
2022/12/23 04:05:01;;;;;;;69.43;30.45;;;;;;;8.90;100.00;67757.03;4993555;28;20045;-83
2022/12/23 04:07:35;;;;;;;60.63;23.70;;;;;;;8.90;100.00;67754.38;4994826;28;20441;-84
2022/12/23 04:10:00;;;;;;;65.95;31.98;;;;;;;8.89;100.00;67755.88;4991750;28;20038;-83
2022/12/23 04:12:27;;;;;;;68.13;33.33;;;;;;;8.88;100.00;67760.63;4991506;28;20131;-84
2022/12/23 04:14:52;;;;;;;62.13;28.30;;;;;;;8.87;100.00;67754.19;4992553;28;20049;-84
2022/12/23 04:17:18;;;;;;;66.38;27.67;;;;;;;8.87;100.00;67753.63;4992226;28;20046;-83
2022/12/23 04:19:45;;;;;;;63.53;27.55;;;;;;;8.85;100.00;67751.91;4987475;28;20521;-84
2022/12/23 04:22:12;;;;;;;67.20;28.02;;;;;;;8.85;100.00;67748.69;4986403;28;20049;-83
2022/12/23 04:24:38;;;;;;;58.55;24.40;;;;;;;8.84;100.00;67748.13;4992470;28;20062;-84
2022/12/23 04:27:04;;;;;;;56.85;25.00;;;;;;;8.82;100.00;67745.88;4990867;28;20402;-83
2022/12/23 04:29:29;;;;;;;53.85;20.80;;;;;;;8.81;100.00;67747.41;4981645;28;20101;-84
2022/12/23 04:31:55;;;;;;;56.83;25.25;;;;;;;;;;4988435;28;20035;-83
2022/12/23 04:34:20;;;;;;;46.53;20.77;;;;;;;8.77;100.00;67748.72;4987645;28;20387;-84
2022/12/23 04:36:45;;;;;;;53.50;23.60;;;;;;;8.74;100.00;67740.00;4986557;28;20045;-84
2022/12/23 04:39:11;;;;;;;46.70;20.13;;;;;;;8.72;100.00;67734.53;4999752;28;20038;-84
2022/12/23 04:41:36;;;;;;;48.30;22.38;;;;;;;8.71;100.00;67736.06;5011286;28;20536;-83
2022/12/23 04:44:02;;;;;;;50.78;24.88;;;;;;;8.68;100.00;67733.22;4999350;28;20129;-83
2022/12/23 04:46:27;;;;;;;46.40;21.17;;;;;;;8.67;100.00;67729.44;4986088;28;20101;-84
2022/12/23 04:48:52;;;;;;;45.45;19.80;;;;;;;8.67;100.00;67729.44;4991348;28;20058;-84
2022/12/23 04:51:18;;;;;;;46.05;19.60;;;;;;;8.66;100.00;67730.97;4990281;28;20543;-84
2022/12/23 04:53:43;;;;;;;52.55;23.15;;;;;;;8.66;100.00;67730.38;4984691;28;20065;-83
2022/12/23 04:56:08;;;;;;;56.65;25.45;;;;;;;8.66;100.00;67730.97;4972313;28;20035;-84
2022/12/23 04:58:34;;;;;;;47.65;23.17;;;;;;;8.65;100.00;67726.59;4970839;28;20082;-83
2022/12/23 05:01:04;;;;;;;54.97;23.42;;;;;;;8.65;100.00;67729.25;4968209;28;20051;-84
2022/12/23 05:03:30;;;;;;;54.28;25.58;;;;;;;8.64;100.00;67723.38;4973860;28;20039;-84
2022/12/23 05:05:55;;;;;;;55.50;24.63;;;;;;;8.65;100.00;67724.50;4969056;28;20035;-85
2022/12/23 05:08:20;;;;;;;47.22;21.63;;;;;;;8.65;100.00;67726.59;4974236;28;20062;-84
2022/12/23 05:10:46;;;;;;;57.42;26.67;;;;;;;8.64;100.00;67725.47;4964771;28;20054;-84
2022/12/23 05:13:11;;;;;;;56.40;27.33;;;;;;;8.64;100.00;67725.47;4972840;28;20058;-85
2022/12/23 05:15:37;;;;;;;59.30;27.50;;;;;;;8.63;100.00;67727.56;4965985;28;20047;-84
2022/12/23 05:18:02;;;;;;;51.13;26.30;;;;;;;;;;4969123;28;20566;-85
2022/12/23 05:20:27;;;;;;;54.65;23.67;;;;;;;8.60;100.00;67721.50;4973086;28;20186;-85
2022/12/23 05:22:53;;;;;;;52.63;24.10;;;;;;;8.58;100.00;67719.81;4972495;28;20078;-85
2022/12/23 05:25:18;;;;;;;51.85;26.70;;;;;;;;;;4973312;28;20586;-85
2022/12/23 05:27:43;;;;;;;52.45;25.75;;;;;;;8.57;100.00;67718.09;4966022;28;20044;-85
2022/12/23 05:30:09;;;;;;;47.85;24.35;;;;;;;8.52;100.00;67713.03;4965211;28;20121;-83
2022/12/23 05:32:34;;;;;;;45.45;24.58;;;;;;;;;;4971807;28;20049;-84
2022/12/23 05:35:00;;;;;;;51.92;22.60;;;;;;;8.51;100.00;67713.97;4969746;28;20302;-85
2022/12/23 05:37:25;;;;;;;49.03;24.52;;;;;;;8.47;100.00;67706.78;4975049;28;20039;-84
2022/12/23 05:39:51;;;;;;;45.22;19.48;;;;;;;8.44;100.00;67706.59;4969059;28;20039;-84
2022/12/23 05:42:18;;;;;;;48.72;21.70;;;;;;;8.43;100.00;67704.91;4954003;28;20615;-83
2022/12/23 05:44:44;;;;;;;47.05;22.83;;;;;;;8.41;100.00;67702.66;4958455;28;20093;-83
2022/12/23 05:47:09;;;;;;;47.92;21.45;;;;;;;8.37;100.00;67698.66;4958387;28;20503;-84
2022/12/23 05:49:35;;;;;;;54.50;26.73;;;;;;;;;;4957008;28;20057;-84
2022/12/23 05:52:00;;;;;;;51.88;27.77;;;;;;;;;;4963689;28;20038;-84
2022/12/23 05:54:25;;;;;;;54.05;29.23;;;;;;;8.27;100.00;67687.88;4966307;28;20126;-83
2022/12/23 05:56:51;;;;;;;46.33;20.98;;;;;;;8.27;100.00;67687.34;4966480;28;20031;-83
2022/12/23 05:59:16;;;;;;;52.20;25.80;;;;;;;8.27;100.00;67693.19;4957404;28;20042;-84
2022/12/23 06:01:42;;;;;;;51.03;22.52;;;;;;;8.26;100.00;67686.75;4961373;28;20107;-84
2022/12/23 06:04:07;;;;;;;45.75;21.38;;;;;;;8.25;100.00;67685.63;4965100;28;20035;-83
2022/12/23 06:06:32;;;;;;;48.35;22.52;;;;;;;8.25;100.00;67685.06;4970408;28;20125;-83
2022/12/23 06:08:58;;;;;;;50.55;22.42;;;;;;;8.25;100.00;67682.97;4965332;28;20042;-83
2022/12/23 06:11:23;;;;;;;48.72;23.20;;;;;;;8.23;100.00;67680.72;4969932;28;20047;-84
2022/12/23 06:13:48;;;;;;;45.78;23.58;;;;;;;;;;4967793;28;20051;-84
2022/12/23 06:16:14;;;;;;;50.60;24.80;;;;;;;8.24;100.00;67683.94;4966466;28;20045;-84
2022/12/23 06:18:39;;;;;;;53.95;28.13;;;;;;;8.24;100.00;67684.50;4953024;28;20051;-84
2022/12/23 06:21:04;;;;;;;50.17;27.42;;;;;;;8.22;100.00;67682.22;4968611;28;20410;-83
2022/12/23 06:23:30;;;;;;;56.17;23.45;;;;;;;8.23;100.00;67682.78;4972699;28;20108;-85
2022/12/23 06:26:00;;;;;;;49.53;23.00;;;;;;;8.19;100.00;67676.19;4974378;28;20069;-83
2022/12/23 06:28:25;;;;;;;54.22;25.88;;;;;;;8.20;100.00;67679.38;4965471;28;20123;-83
2022/12/23 06:30:52;;;;;;;54.83;30.45;;;;;;;8.19;100.00;67684.13;4963412;28;20117;-84
2022/12/23 06:33:18;;;;;;;52.78;25.70;;;;;;;8.18;100.00;67677.69;4975428;28;20058;-84
2022/12/23 06:35:43;;;;;;;55.55;28.55;;;;;;;8.16;100.00;67683.38;4967483;28;20050;-83
2022/12/23 06:38:08;;;;;;;56.72;31.15;;;;;;;8.16;100.00;67675.44;4967559;28;20035;-83
2022/12/23 06:40:34;;;;;;;59.58;33.08;;;;;;;8.13;100.00;67669.38;4965537;28;20046;-83
2022/12/23 06:42:59;;;;;;;57.20;28.98;;;;;;;8.10;100.00;67666.00;4969792;28;20093;-84
2022/12/23 06:45:24;;;;;;;56.40;31.88;;;;;;;8.10;100.00;67666.00;4961747;28;20469;-83
2022/12/23 06:47:50;;;;;;;58.83;30.88;;;;;;;8.07;100.00;67665.25;4967781;28;20506;-83
2022/12/23 06:50:15;;;;;;;58.72;32.80;;;;;;;8.04;100.00;67661.84;4966718;28;20047;-84
2022/12/23 06:52:41;;;;;;;59.60;30.77;;;;;;;8.03;100.00;67660.72;4962717;28;20031;-84
2022/12/23 06:55:06;;;;;;;64.78;33.85;;;;;;;8.04;100.00;67659.19;4966877;28;20407;-83
2022/12/23 06:57:32;;;;;;;62.75;32.08;;;;;;;8.03;100.00;67660.72;4962039;28;20136;-83
2022/12/23 06:59:57;;;;;;;65.78;37.13;;;;;;;8.04;100.00;67659.19;4962664;28;20490;-84
2022/12/23 07:02:22;;;;;;;63.13;35.63;;;;;;;;;;4963376;28;20074;-83
2022/12/23 07:04:48;;;;;;;68.30;38.63;;;;;;;8.03;100.00;67661.28;4966804;28;20055;-84
2022/12/23 07:07:13;;;;;;;69.63;34.95;;;;;;;8.01;100.00;67659.00;4967444;28;20114;-84
2022/12/23 07:09:38;;;;;;;70.15;39.40;;;;;;;8.01;100.00;67659.00;4961906;28;20041;-84
2022/12/23 07:12:04;;;;;;;68.75;35.83;;;;;;;8.02;100.00;67659.56;4969092;28;20035;-84
2022/12/23 07:14:29;;;;;;;73.40;36.80;;;;;;;8.01;100.00;67655.81;4968282;28;20047;-83
2022/12/23 07:16:55;;;;;;;73.85;39.28;;;;;;;8.02;100.00;67654.84;4963062;28;20125;-84
2022/12/23 07:19:20;;;;;;;71.82;40.83;;;;;;;8.02;100.00;67656.94;4962721;28;20055;-83
2022/12/23 07:21:46;;;;;;;75.65;41.42;;;;;;;8.02;100.00;67657.50;4949915;28;20105;-83
2022/12/23 07:24:11;;;;;;;75.43;41.67;;;;;;;8.01;100.00;67658.44;4959460;28;20066;-83
2022/12/23 07:26:36;;;;;;;79.13;40.20;;;;;;;8.00;100.00;67655.25;4968580;28;20035;-82
2022/12/23 07:29:03;;;;;;;84.35;41.40;;;;;;;8.00;100.00;67657.91;4959635;28;20046;-84
2022/12/23 07:31:28;;;;;;;73.97;37.65;;;;;;;;;;4963057;28;20050;-83
2022/12/23 07:33:53;;;;;;;76.65;38.50;;;;;;;;;;4968328;28;20041;-83
2022/12/23 07:36:19;;;;;;;76.03;40.72;;;;;;;;;;4963832;28;20053;-84
2022/12/23 07:38:47;;;;;;;75.15;35.90;;;;;;;;;;4966281;28;20051;-84
2022/12/23 07:41:12;;;;;;;69.70;32.33;;;;;;;7.98;100.00;67652.41;4968293;28;20074;-83
2022/12/23 07:43:38;;;;;;;62.97;33.08;;;;;;;7.97;100.00;67651.84;4967731;28;20066;-83
2022/12/23 07:46:08;;;;;;;73.68;39.45;;;;;;;7.98;100.00;67660.34;4963319;28;20050;-84
2022/12/23 07:48:39;;;;;;;63.60;30.58;;;;;;;7.97;100.00;67653.91;4954892;28;20054;-84
2022/12/23 07:51:04;;;;;;;73.35;33.55;;;;;;;;;;4962123;28;20051;-85
2022/12/23 07:53:30;;;;;;;73.25;37.90;;;;;;;7.98;100.00;67660.91;4959972;28;20069;-84
2022/12/23 07:55:55;;;;;;;68.53;31.65;;;;;;;7.97;100.00;67659.78;4964868;28;20101;-84
2022/12/23 07:58:21;;;;;;;70.40;33.75;;;;;;;7.95;100.00;67649.56;4965824;28;20108;-83
2022/12/23 08:00:46;;;;;;;65.25;32.60;;;;;;;7.96;100.00;67650.13;4969582;28;20678;-84
2022/12/23 08:03:11;;;;;;;85.28;37.40;;;;;;;7.95;100.00;67652.22;4963356;28;20039;-84
2022/12/23 08:05:37;;;;;;;80.20;33.72;;;;;;;;;;4959915;28;20390;-83
2022/12/23 08:08:03;;;;;;;80.43;38.58;;;;;;;7.95;100.00;67652.22;4961599;28;20053;-84
2022/12/23 08:10:28;;;;;;;73.00;31.58;;;;;;;7.95;100.00;67646.38;4961366;28;20051;-84
2022/12/23 08:12:54;;;;;;;74.85;35.53;;;;;;;7.95;100.00;67651.66;4958969;28;20515;-84
2022/12/23 08:15:20;;;;;;;72.32;30.45;;;;;;;7.95;100.00;67652.22;4963285;28;20054;-84
2022/12/23 08:17:45;;;;;;;80.95;38.70;;;;;;;7.95;100.00;67651.66;4990251;28;20770;-84
2022/12/23 08:20:11;;;;;;;73.50;32.72;;;;;;;7.96;100.00;67650.69;4993083;28;20363;-84
2022/12/23 08:22:36;;;;;;;82.43;38.75;;;;;;;;;;4981795;28;20512;-84
2022/12/23 08:25:02;;;;;;;79.93;40.97;;;;;;;7.97;100.00;67651.25;4988692;28;20042;-84
2022/12/23 08:27:27;;;;;;;78.35;36.75;;;;;;;7.95;100.00;67649.56;4988955;28;20501;-84
2022/12/23 08:29:53;;;;;;;83.03;40.53;;;;;;;7.98;100.00;67652.41;4992624;28;20101;-84
2022/12/23 08:32:18;;;;;;;79.20;37.97;;;;;;;7.97;100.00;67653.91;4991282;28;20521;-84
2022/12/23 08:34:43;;;;;;;83.70;38.75;;;;;;;7.98;100.00;67652.41;4987892;28;20129;-84
2022/12/23 08:37:08;;;;;;;85.10;39.25;;;;;;;;;;4983680;28;20042;-84
2022/12/23 08:39:34;;;;;;;89.18;42.13;;;;;;;8.01;100.00;67655.81;4979437;28;20160;-84
2022/12/23 08:41:59;;;;;;;74.03;33.70;;;;;;;7.98;100.00;67652.97;5011394;28;20050;-84
2022/12/23 08:44:26;;;;;;;84.90;40.05;;;;;;;7.97;100.00;67653.91;4993028;28;20391;-84
2022/12/23 08:46:55;;;;;;;79.25;37.40;;;;;;;7.98;100.00;67655.06;4985098;28;20043;-84
2022/12/23 08:49:22;;;;;;;84.63;37.40;;;;;;;7.99;100.00;67654.09;4989174;28;20105;-85
2022/12/23 08:51:48;;;;;;;79.03;37.10;;;;;;;8.00;100.00;67657.31;4986035;28;20130;-84
2022/12/23 08:54:14;;;;;;;74.82;34.30;;;;;;;8.00;100.00;67654.66;4993353;28;20049;-84
2022/12/23 08:56:40;;;;;;;81.10;38.55;;;;;;;8.00;100.00;67657.31;4995830;28;20042;-83
2022/12/23 08:59:06;;;;;;;81.95;37.38;;;;;;;;;;4993452;28;20050;-84
2022/12/23 09:01:33;;;;;;;86.63;41.17;;;;;;;8.02;100.00;67656.94;4982613;28;20047;-84
2022/12/23 09:04:04;;;;;;;87.43;38.03;;;;;;;8.03;100.00;67661.28;4981951;28;20438;-84
2022/12/23 09:06:34;;;;;;;81.90;37.60;;;;;;;8.05;100.00;67660.31;4978590;28;20259;-83
2022/12/23 09:09:00;;;;;;;91.50;42.08;;;;;;;;;;4977795;28;20038;-83
2022/12/23 09:11:27;;;;;;;84.05;40.00;;;;;;;8.03;100.00;67661.28;4983681;28;20042;-83
2022/12/23 09:13:52;;;;;;;77.93;32.53;;;;;;;8.05;100.00;67662.97;4973893;28;20046;-83
2022/12/23 09:16:18;;;;;;;84.95;36.72;;;;;;;8.06;100.00;67664.13;4998231;28;20033;-83
2022/12/23 09:18:43;;;;;;;78.60;36.85;;;;;;;;;;4983116;28;20035;-83
2022/12/23 09:21:12;;;;;;;81.63;38.35;;;;;;;8.08;100.00;67664.28;4971111;28;20046;-83
2022/12/23 09:23:38;;;;;;;81.57;36.78;;;;;;;8.09;100.00;67667.50;4988656;28;20130;-84
2022/12/23 09:26:05;;;;;;;76.95;35.33;;;;;;;8.09;100.00;67664.88;4990813;28;20051;-83
2022/12/23 09:28:30;;;;;;;73.75;36.80;;;;;;;8.09;100.00;67665.44;4989324;28;20125;-83
2022/12/23 09:30:56;;;;;;;79.22;36.00;;;;;;;8.12;100.00;67671.47;4982262;28;20510;-83
2022/12/23 09:33:21;;;;;;;82.22;39.08;;;;;;;;;;4989297;28;20085;-83
2022/12/23 09:35:46;;;;;;;80.15;35.03;;;;;;;8.16;100.00;67674.88;4986133;28;20061;-83
2022/12/23 09:38:12;;;;;;;73.55;32.38;;;;;;;8.16;100.00;67672.22;4985468;28;20550;-82
2022/12/23 09:40:39;;;;;;;77.28;35.90;;;;;;;8.14;100.00;67673.16;4988702;28;20084;-83
2022/12/23 09:43:19;;;;;;;68.15;29.50;;;;;;;;;;4991184;28;20081;-83
2022/12/23 09:45:57;;;;;;;77.97;36.33;;;;;;;8.18;100.00;67677.69;4980468;28;20038;-83
2022/12/23 09:48:27;;;;;;;82.78;39.50;;;;;;;8.18;100.00;67677.13;4985132;28;20046;-83
2022/12/23 09:50:53;;;;;;;84.35;34.88;;;;;;;8.19;100.00;67678.81;4983179;28;20049;-83
2022/12/23 09:53:22;;;;;;;80.07;37.15;;;;;;;8.21;100.00;67681.09;4985344;28;20088;-83
2022/12/23 09:55:59;;;;;;;84.32;36.88;;;;;;;8.21;100.00;67681.09;4981064;28;20541;-83
2022/12/23 09:58:46;;;;;;;77.25;34.15;;;;;;;8.24;100.00;67684.50;4986395;28;20129;-83
2022/12/23 10:01:31;;;;;;;78.80;34.05;;;;;;;8.22;100.00;67681.66;4986317;28;20046;-83
2022/12/23 10:04:26;;;;;;;74.80;32.88;;;;;;;8.21;100.00;67680.53;4982792;28;20066;-83
2022/12/23 10:07:03;;;;;;;85.72;35.83;;;;;;;8.19;100.00;67683.56;4996225;28;20042;-83
2022/12/23 10:09:38;;;;;;;83.60;39.25;;;;;;;8.20;100.00;67679.38;4994057;28;20053;-83
2022/12/23 10:12:17;;;;;;;95.80;42.05;;;;;;;8.22;100.00;67682.22;4986091;28;20046;-83
2022/12/23 10:14:43;;;;;;;88.78;39.50;;;;;;;;;;4990105;28;20042;-83
2022/12/23 10:17:20;;;;;;;78.65;34.63;;;;;;;8.23;100.00;67680.13;4981727;28;20049;-84
2022/12/23 10:19:47;;;;;;;83.07;35.92;;;;;;;8.24;100.00;67684.50;4987760;28;20097;-83
2022/12/23 10:22:22;;;;;;;76.32;32.25;;;;;;;8.28;100.00;67689.00;4976747;28;20047;-83
2022/12/23 10:24:48;;;;;;;65.30;28.90;;;;;;;8.29;100.00;67686.94;4998982;28;20481;-83
2022/12/23 10:27:40;;;;;;;70.55;30.85;;;;;;;8.30;100.00;67690.72;4981402;28;20042;-83
2022/12/23 10:30:11;;;;;;;72.80;29.40;;;;;;;8.30;100.00;67685.97;4984181;28;20121;-84
2022/12/23 10:33:01;;;;;;;59.50;25.65;;;;;;;8.33;100.00;67694.13;4987353;28;20038;-83
2022/12/23 10:36:04;;;;;;;63.90;27.90;;;;;;;8.32;100.00;67693.56;4982832;28;20379;-83
2022/12/23 10:38:52;;;;;;;58.78;27.83;;;;;;;8.34;100.00;67692.59;4993918;28;20048;-84
2022/12/23 10:41:29;;;;;;;56.25;24.92;;;;;;;8.34;100.00;67695.84;4980371;28;20399;-83
2022/12/23 10:43:57;;;;;;;60.83;29.90;;;;;;;;;;4986642;28;20038;-83
2022/12/23 10:46:25;;;;;;;56.30;27.50;;;;;;;8.36;100.00;67698.09;4984030;28;20050;-83
2022/12/23 10:49:22;;;;;;;58.10;27.83;;;;;;;8.39;100.00;67705.69;4990089;28;20042;-84
2022/12/23 10:51:58;;;;;;;52.42;24.75;;;;;;;8.39;100.00;67700.38;4993228;28;20074;-84
2022/12/23 10:54:25;;;;;;;56.08;28.27;;;;;;;;;;4974323;28;20046;-84
2022/12/23 10:56:52;;;;;;;50.92;24.15;;;;;;;8.41;100.00;67703.22;4985444;28;20053;-84
2022/12/23 10:59:24;;;;;;;56.70;27.73;;;;;;;8.41;100.00;67707.94;4987929;28;20046;-84
2022/12/23 11:01:52;;;;;;;58.05;26.75;;;;;;;;;;4985913;28;20053;-84
2022/12/23 11:04:23;;;;;;;50.88;23.10;;;;;;;8.42;100.00;67703.78;4988763;28;20446;-84
2022/12/23 11:06:49;;;;;;;47.53;24.17;;;;;;;;;;4984820;28;20108;-84
2022/12/23 11:09:20;;;;;;;54.30;26.73;;;;;;;;;;4984691;28;20133;-84
2022/12/23 11:11:59;;;;;;;44.80;21.85;;;;;;;8.42;100.00;67701.69;4992418;28;20049;-84
2022/12/23 11:14:33;;;;;;;50.50;27.05;;;;;;;;;;4987736;28;20491;-84
2022/12/23 11:16:59;;;;;;;56.00;28.23;;;;;;;8.44;100.00;67703.38;4982456;28;20047;-84
2022/12/23 11:19:24;;;;;;;56.42;27.45;;;;;;;8.44;100.00;67706.59;4984357;28;20078;-84
2022/12/23 11:21:55;;;;;;;64.35;39.10;;;;;;;8.48;100.00;67711.13;4982768;28;20070;-84
2022/12/23 11:24:22;;;;;;;54.50;28.27;;;;;;;8.48;100.00;67710.56;4980772;28;20489;-84
2022/12/23 11:27:00;;;;;;;49.55;25.40;;;;;;;8.46;100.00;67708.88;4978735;28;20185;-84
2022/12/23 11:29:33;;;;;;;60.17;29.45;;;;;;;8.49;100.00;67709.06;4978712;28;20042;-85
2022/12/23 11:31:59;;;;;;;56.03;26.42;;;;;;;8.49;100.00;67706.41;4988754;28;20039;-84
2022/12/23 11:34:26;;;;;;;54.58;27.80;;;;;;;8.49;100.00;67711.72;4987224;28;20042;-84
2022/12/23 11:36:59;;;;;;;52.22;24.92;;;;;;;8.50;100.00;67713.41;4986176;28;20042;-84
2022/12/23 11:39:32;;;;;;;51.45;22.95;;;;;;;8.51;100.00;67708.66;4982429;28;20662;-84
2022/12/23 11:42:17;;;;;;;59.33;27.10;;;;;;;8.54;100.00;67717.34;4978590;28;20384;-84
2022/12/23 11:44:50;;;;;;;52.17;24.65;;;;;;;8.54;100.00;67717.91;5007093;28;20398;-84
2022/12/23 11:47:21;;;;;;;52.95;25.63;;;;;;;8.54;100.00;67717.91;4996464;28;20605;-85
2022/12/23 11:49:51;;;;;;;51.92;23.63;;;;;;;;;;4994726;28;20514;-85
2022/12/23 11:52:19;;;;;;;47.50;22.92;;;;;;;8.56;100.00;67719.63;4992836;28;20053;-84
2022/12/23 11:54:59;;;;;;;46.33;24.58;;;;;;;8.57;100.00;67720.75;4999768;28;20043;-85
2022/12/23 11:57:40;;;;;;;44.78;21.38;;;;;;;8.56;100.00;67716.97;4984401;28;20058;-84
2022/12/23 12:00:19;;;;;;;45.03;20.92;;;;;;;8.56;100.00;67716.97;4993689;28;20054;-84
2022/12/23 12:02:47;;;;;;;42.50;19.95;;;;;;;8.56;100.00;67720.19;4998797;28;20053;-83
2022/12/23 12:05:20;;;;;;;46.17;23.70;;;;;;;8.55;100.00;67713.19;4998073;28;20037;-84
2022/12/23 12:07:47;;;;;;;43.80;21.88;;;;;;;8.56;100.00;67719.63;4991624;28;20049;-84
2022/12/23 12:10:16;;;;;;;45.33;21.70;;;;;;;;;;4991440;28;20461;-84
2022/12/23 12:12:41;;;;;;;38.47;19.45;;;;;;;8.55;100.00;67718.50;4991191;28;20725;-84